PDT,Max TemperatureF,Mean TemperatureF,Min TemperatureF,Max Dew PointF,MeanDew PointF,Min DewpointF,Max Humidity, Mean Humidity, Min Humidity, Max Sea Level PressureIn, Mean Sea Level PressureIn, Min Sea Level PressureIn, Max VisibilityMiles, Mean VisibilityMiles, Min VisibilityMiles, Max Wind SpeedMPH, Mean Wind SpeedMPH, Max Gust SpeedMPH,PrecipitationIn, CloudCover, Events, WindDirDegrees
2013-3-1,62,50,37,43,36,33,93,80,44,30.36,30.31,30.27,10,4,0,21,4,22,0.00,5,Fog,39
2013-3-2,57,48,36,39,35,26,82,63,46,30.25,30.08,29.97,10,10,10,30,7,37,0.00,1,,297
2013-3-3,46,39,30,26,22,19,79,54,33,30.25,30.16,30.06,10,10,10,31,19,39,0.00,0,,307
2013-3-4,48,34,21,23,19,15,78,56,32,30.32,30.21,30.06,10,10,10,15,6,,0.00,2,,91
2013-3-5,39,32,26,31,27,18,85,75,50,30.04,29.91,29.78,10,7,1,7,3,,0.02,7,Snow,315
2013-3-6,37,35,33,34,31,30,93,85,75,29.86,29.67,29.59,10,2,0,4,0,,0.21,8,Fog-Rain-Snow,220
2013-3-7,54,43,30,35,30,26,85,70,40,30.07,29.99,29.88,10,8,2,8,2,,0.00,5,,173
2013-3-8,55,40,26,32,27,21,86,67,37,30.17,30.08,30.04,10,9,1,9,2,,0.00,0,,262
2013-3-9,61,42,24,30,25,19,81,55,22,30.42,30.33,30.19,10,10,10,21,5,24,0.00,0,,313
2013-3-10,54,48,39,33,30,25,70,53,44,30.39,30.33,30.28,10,10,10,31,16,37,0.00,4,,313
2013-3-11,57,45,35,36,29,21,78,56,27,30.34,30.29,30.19,10,10,10,16,7,,0.00,5,,294
2013-3-12,61,48,37,41,38,34,86,70,47,30.17,30.09,30.04,10,10,9,24,7,32,0.01,6,Rain,325
2013-3-13,61,52,43,44,41,37,80,67,51,30.16,30.12,30.08,10,10,10,17,10,,0.00,2,Rain,302
2013-3-14,64,54,43,45,39,34,86,69,41,30.10,30.05,29.96,10,10,10,18,5,24,0.00,1,,297
2013-3-15,62,52,43,41,38,36,80,62,42,30.17,30.12,30.08,10,10,10,22,12,30,0.00,3,Rain,307
2013-3-16,55,44,34,37,32,24,86,67,43,30.08,29.93,29.80,10,10,10,21,7,33,0.00,3,Rain,305
2013-3-17,46,39,32,28,25,22,79,59,39,30.10,30.03,29.87,10,10,10,32,17,40,0.00,1,,307
2013-3-18,50,39,28,29,24,22,75,56,36,30.22,30.10,30.02,10,10,10,39,15,50,0.00,2,,313
2013-3-19,52,38,26,34,26,14,89,69,25,30.24,30.00,29.76,10,7,1,13,4,,0.12,5,Rain-Snow,92
2013-3-20,53,42,33,39,32,22,89,78,54,29.89,29.63,29.50,10,6,0,29,4,39,0.06,6,Fog-Rain,303
2013-3-21,48,39,28,29,25,20,85,66,34,30.12,30.05,29.90,10,7,0,23,16,33,0.01,5,Fog-Snow,303
2013-3-22,45,36,28,24,21,19,72,57,38,30.32,30.21,30.11,10,10,10,24,13,33,0.00,2,,310
2013-3-23,50,36,23,22,18,13,75,55,23,30.38,30.33,30.26,10,10,10,7,3,,0.00,0,,357
2013-3-24,50,36,21,23,18,13,75,53,29,30.36,30.28,30.19,10,10,10,9,2,,0.00,0,,113
2013-3-25,55,38,21,23,20,15,75,51,27,30.19,30.10,30.01,10,10,10,10,2,,0.00,2,,134
2013-3-26,62,46,30,31,27,22,69,48,26,30.04,29.98,29.93,10,10,10,9,2,,0.00,2,,133
2013-3-27,60,50,41,36,34,30,71,59,39,30.01,29.96,29.92,10,10,10,7,2,,0.00,6,Rain,5
2013-3-28,62,48,36,41,35,30,83,64,39,30.12,30.06,30.01,10,10,8,12,3,,0.02,5,Rain,327
2013-3-29,66,50,34,38,34,29,85,59,30,30.21,30.18,30.13,10,10,10,12,5,,0.00,4,,330
2013-3-30,71,52,33,38,34,27,85,56,31,30.29,30.21,30.12,10,10,10,8,2,,0.00,0,,94
2013-3-31,73,52,32,40,34,27,82,54,25,30.12,30.04,29.94,10,10,10,8,2,,0.00,0,,112